Time;durP1;ratioP1;P1;durP2;ratioP2;P2;SDS_P1;SDS_P2;PMS_P1;PMS_P2;Temp;Humidity;BMP_temperature;BMP_pressure;BME280_temperature;BME280_humidity;BME280_pressure;Samples;Min_cycle;Max_cycle;Signal;HPM_P1;HPM_P2
2022/09/01 00:01:19;;;;;;;;;;;;;;;21.19;59.73;98549.88;5093458;28;19918;-48
2022/09/01 00:03:47;;;;;;;;;;;;;;;21.20;59.88;98546.13;5093519;28;20366;-48
2022/09/01 00:06:21;;;;;;;;;;;;;;;21.25;59.95;98556.78;5093404;28;19929;-49
2022/09/01 00:08:47;;;;;;;;;;;;;;;21.31;59.88;98553.03;5093430;28;19919;-49
2022/09/01 00:11:12;;;;;;;;;;;;;;;21.37;59.66;98548.47;5093307;28;20286;-48
2022/09/01 00:13:38;;;;;;;;;;;;;;;21.37;59.77;98548.47;5093209;28;19920;-48
2022/09/01 00:16:03;;;;;;;;;;;;;;;21.45;59.83;98550.59;5091924;28;19912;-48
2022/09/01 00:18:31;;;;;;;;;;;;;;;21.38;59.44;98543.91;5093139;28;19966;-49
2022/09/01 00:20:58;;;;;;;;;;;;;;;21.38;59.48;98543.91;5092984;28;19915;-48
2022/09/01 00:23:24;;;;;;;;;;;;;;;21.31;59.11;98553.03;5092762;28;19951;-48
2022/09/01 00:25:49;;;;;;;;;;;;;;;21.22;59.39;98552.00;5091660;28;19922;-48
2022/09/01 00:28:15;;;;;;;;;;;;;;;21.11;59.50;98559.25;5093005;28;19998;-49
2022/09/01 00:30:40;;;;;;;;;;;;;;;21.05;59.60;98548.88;5092763;28;19916;-49
2022/09/01 00:33:06;;;;;;;;;;;;;;;21.03;60.32;98556.34;5091515;28;19911;-49
2022/09/01 00:35:32;;;;;;;;;;;;;;;21.02;60.78;98557.41;5093193;28;20301;-49
2022/09/01 00:37:57;;;;;;;;;;;;;;;20.94;61.02;98551.53;5091552;28;19918;-48
2022/09/01 00:40:23;;;;;;;;;;;;;;;20.85;61.41;98555.84;5092836;28;19961;-49
2022/09/01 00:42:49;;;;;;;;;;;;;;;20.74;61.78;98551.59;5092834;28;19915;-48
2022/09/01 00:45:14;;;;;;;;;;;;;;;20.71;61.77;98555.63;5091444;28;20392;-48
2022/09/01 00:47:40;;;;;;;;;;;;;;;20.68;61.57;98553.47;5092742;28;19919;-48
2022/09/01 00:50:06;;;;;;;;;;;;;;;20.59;61.96;98552.44;5092593;28;20334;-49
2022/09/01 00:52:39;;;;;;;;;;;;;;;20.50;62.67;98562.00;5091300;28;19915;-48
2022/09/01 00:55:15;;;;;;;;;;;;;;;20.57;62.54;98559.88;5092516;28;19957;-48
2022/09/01 00:57:41;;;;;;;;;;;;;;;20.47;62.46;98560.69;5092862;28;20007;-48
2022/09/01 01:00:11;;;;;;;;;;;;;;;20.34;62.65;98567.38;5092494;28;19961;-49
2022/09/01 01:02:37;;;;;;;;;;;;;;;20.29;62.98;98566.56;5092507;28;20301;-49
2022/09/01 01:05:04;;;;;;;;;;;;;;;20.27;62.57;98563.38;5092429;28;19912;-49
2022/09/01 01:07:29;;;;;;;;;;;;;;;20.42;62.68;98567.88;5091148;28;19915;-48
2022/09/01 01:09:55;;;;;;;;;;;;;;;20.59;62.49;98564.97;5091063;28;19919;-49
2022/09/01 01:12:22;;;;;;;;;;;;;;;20.70;62.63;98564.66;5091036;28;19918;-49
2022/09/01 01:14:49;;;;;;;;;;;;;;;20.60;63.00;98563.91;5092302;28;19912;-49
2022/09/01 01:17:15;;;;;;;;;;;;;;;20.58;63.49;98566.00;5092344;28;20363;-49
2022/09/01 01:25:17;;;;;;;;;;;;;;;20.45;63.55;98576.16;5092574;28;19919;-49
2022/09/01 01:27:44;;;;;;;;;;;;;;;20.53;63.41;98575.59;5092162;28;20396;-48
2022/09/01 01:30:11;;;;;;;;;;;;;;;20.44;63.69;98581.75;5090645;28;20002;-48
2022/09/01 01:32:41;;;;;;;;;;;;;;;20.27;64.20;98588.13;5090886;28;20447;-49
2022/09/01 01:35:13;;;;;;;;;;;;;;;20.18;64.47;98591.59;5095312;28;20017;-49
2022/09/01 01:37:39;;;;;;;;;;;;;;;20.17;64.83;98579.34;5096298;28;20481;-49
2022/09/01 01:40:04;;;;;;;;;;;;;;;20.18;65.10;98580.94;5096206;28;19912;-49
2022/09/01 01:42:31;;;;;;;;;;;;;;;20.41;64.03;98583.09;5094893;28;19912;-48
2022/09/01 01:44:57;;;;;;;;;;;;;;;20.52;63.04;98573.19;5094811;28;19927;-49
2022/09/01 01:47:22;;;;;;;;;;;;;;;20.44;62.70;98587.06;5094692;28;19934;-49
2022/09/01 01:49:48;;;;;;;;;;;;;;;20.30;63.20;98584.13;5094750;28;19912;-49
2022/09/01 01:52:16;;;;;;;;;;;;;;;20.27;63.18;98571.34;5094640;28;19955;-49
2022/09/01 01:54:44;;;;;;;;;;;;;;;20.17;63.43;98571.34;5095830;28;19916;-49
2022/09/01 01:57:14;;;;;;;;;;;;;;;20.11;62.84;98576.66;5096149;28;19912;-49
2022/09/01 01:59:39;;;;;;;;;;;;;;;19.99;62.46;98578.00;5095835;28;19916;-49
2022/09/01 02:02:08;;;;;;;;;;;;;;;19.84;63.83;98576.09;5095773;28;19912;-48
2022/09/01 02:04:34;;;;;;;;;;;;;;;19.94;64.37;98570.78;5095846;28;19912;-49
2022/09/01 02:07:00;;;;;;;;;;;;;;;20.17;63.63;98572.16;5095680;28;19918;-49
2022/09/01 02:09:25;;;;;;;;;;;;;;;20.33;63.13;98580.94;5095643;28;19912;-49
2022/09/01 02:11:57;;;;;;;;;;;;;;;20.38;62.56;98588.13;5095619;28;19912;-49
2022/09/01 02:14:22;;;;;;;;;;;;;;;20.45;62.35;98578.81;5095533;28;20431;-48
2022/09/01 02:16:48;;;;;;;;;;;;;;;20.54;61.74;98573.72;5094218;28;19916;-49
2022/09/01 02:19:13;;;;;;;;;;;;;;;20.52;61.31;98584.69;5094152;28;19989;-49
2022/09/01 02:21:47;;;;;;;;;;;;;;;20.45;61.98;98584.16;5095417;28;19916;-48
2022/09/01 02:24:14;;;;;;;;;;;;;;;20.47;61.88;98590.00;5095651;28;20010;-48
2022/09/01 02:26:44;;;;;;;;;;;;;;;20.17;61.90;98595.34;5093992;28;20412;-49
2022/09/01 02:29:19;;;;;;;;;;;;;;;19.95;62.82;98597.16;5095352;28;20384;-49
2022/09/01 02:31:46;;;;;;;;;;;;;;;19.86;63.35;98600.59;5095120;28;19916;-49
2022/09/01 02:34:13;;;;;;;;;;;;;;;19.71;63.61;98596.03;5095169;28;20010;-48
2022/09/01 02:36:46;;;;;;;;;;;;;;;19.51;64.10;98600.19;5093824;28;20397;-49
2022/09/01 02:39:12;;;;;;;;;;;;;;;19.30;64.97;98607.31;5095204;28;19965;-49
2022/09/01 02:41:39;;;;;;;;;;;;;;;19.38;65.34;98613.19;5095064;28;19915;-49
2022/09/01 02:44:10;;;;;;;;;;;;;;;19.47;64.40;98604.44;5094786;28;20010;-48
2022/09/01 02:46:42;;;;;;;;;;;;;;;19.54;64.45;98602.34;5094900;28;19919;-48
2022/09/01 02:49:18;;;;;;;;;;;;;;;19.51;64.27;98599.41;5093726;28;19919;-49
2022/09/01 02:51:45;;;;;;;;;;;;;;;19.55;64.25;98603.94;5094913;28;19955;-49
2022/09/01 02:54:16;;;;;;;;;;;;;;;19.61;63.88;98607.44;5094748;28;20298;-49
2022/09/01 02:56:41;;;;;;;;;;;;;;;19.66;63.77;98610.13;5094769;28;20014;-49
2022/09/01 02:59:11;;;;;;;;;;;;;;;19.72;63.76;98603.78;5093449;28;20456;-49
2022/09/01 03:01:38;;;;;;;;;;;;;;;19.83;63.34;98599.28;5094753;28;20525;-48
2022/09/01 03:04:08;;;;;;;;;;;;;;;19.74;63.58;98606.19;5094658;28;19916;-48
2022/09/01 03:06:36;;;;;;;;;;;;;;;19.63;63.88;98601.84;5094682;28;19915;-49
2022/09/01 03:09:03;;;;;;;;;;;;;;;19.55;63.97;98603.16;5094565;28;19996;-49
2022/09/01 03:11:30;;;;;;;;;;;;;;;19.38;64.25;98594.56;5094488;28;19912;-48
2022/09/01 03:13:56;;;;;;;;;;;;;;;19.15;65.17;98600.03;5094585;28;19911;-49
2022/09/01 03:16:21;;;;;;;;;;;;;;;19.17;64.76;98599.78;5094430;28;19912;-49
2022/09/01 03:18:48;;;;;;;;;;;;;;;19.23;64.72;98597.97;5093001;28;20022;-49
2022/09/01 03:21:16;;;;;;;;;;;;;;;19.28;64.61;98601.44;5094253;28;19911;-49
2022/09/01 03:23:43;;;;;;;;;;;;;;;19.34;64.36;98603.06;5094209;28;19911;-49
2022/09/01 03:26:09;;;;;;;;;;;;;;;19.31;64.32;98600.91;5092932;28;19989;-49
2022/09/01 03:28:36;;;;;;;;;;;;;;;19.22;64.40;98593.72;5092853;28;20003;-48
2022/09/01 03:31:02;;;;;;;;;;;;;;;19.11;64.41;98598.94;5093823;28;19959;-49
2022/09/01 03:33:31;;;;;;;;;;;;;;;19.07;64.80;98591.75;5092647;28;19919;-48
2022/09/01 03:35:57;;;;;;;;;;;;;;;19.21;64.90;98592.88;5093968;28;19912;-48
2022/09/01 03:38:23;;;;;;;;;;;;;;;19.27;64.56;98591.06;5092688;28;19919;-49
2022/09/01 03:40:50;;;;;;;;;;;;;;;19.31;64.80;98584.16;5092559;28;19920;-49
2022/09/01 03:43:16;;;;;;;;;;;;;;;19.45;64.58;98589.81;5093836;28;20339;-49
2022/09/01 03:45:42;;;;;;;;;;;;;;;19.30;64.47;98579.91;5093794;28;19974;-48
2022/09/01 03:48:08;;;;;;;;;;;;;;;19.10;65.29;98575.28;5092438;28;19912;-48
2022/09/01 03:50:45;;;;;;;;;;;;;;;19.17;65.59;98586.47;5092373;28;20369;-49
2022/09/01 03:53:12;;;;;;;;;;;;;;;19.11;65.46;98590.97;5076199;28;20305;-48
2022/09/01 03:55:38;;;;;;;;;;;;;;;19.05;65.96;98573.38;5092196;28;20003;-48
2022/09/01 03:58:05;;;;;;;;;;;;;;;19.14;65.89;98574.50;5092851;28;20011;-48
2022/09/01 04:00:34;;;;;;;;;;;;;;;19.23;65.47;98574.81;5093582;28;20045;-49
2022/09/01 04:03:01;;;;;;;;;;;;;;;19.36;64.91;98570.88;5093517;28;19916;-49
2022/09/01 04:05:28;;;;;;;;;;;;;;;19.43;64.26;98581.28;5092322;28;20002;-48
2022/09/01 04:07:55;;;;;;;;;;;;;;;19.40;63.97;98584.44;5092072;28;20361;-49
2022/09/01 04:10:21;;;;;;;;;;;;;;;19.35;64.00;98578.03;5093347;28;19973;-49
2022/09/01 04:12:47;;;;;;;;;;;;;;;19.29;64.30;98572.97;5093306;28;19951;-49
2022/09/01 04:15:13;;;;;;;;;;;;;;;19.22;64.45;98572.44;5093167;28;20013;-49
2022/09/01 04:20:23;;;;;;;;;;;;;;;18.90;65.30;98575.97;5093216;28;19922;-48
2022/09/01 04:22:51;;;;;;;;;;;;;;;18.90;65.66;98579.44;5091819;28;20411;-49
2022/09/01 04:25:21;;;;;;;;;;;;;;;18.86;66.21;98581.00;5091769;28;19919;-48
2022/09/01 04:27:47;;;;;;;;;;;;;;;18.94;66.05;98588.50;5093080;28;19912;-48
2022/09/01 04:30:13;;;;;;;;;;;;;;;18.87;65.87;98582.59;5092750;28;19915;-49
2022/09/01 04:32:39;;;;;;;;;;;;;;;18.89;65.99;98585.78;5091749;28;19923;-48
2022/09/01 04:35:05;;;;;;;;;;;;;;;18.93;66.02;98589.56;5091543;28;19912;-49
2022/09/01 04:37:31;;;;;;;;;;;;;;;18.98;65.62;98588.00;5092865;28;19912;-48
2022/09/01 04:39:56;;;;;;;;;;;;;;;18.97;65.51;98589.84;5091567;28;20010;-47
2022/09/01 04:42:23;;;;;;;;;;;;;;;18.87;65.55;98587.91;5091482;28;19912;-47
2022/09/01 04:44:53;;;;;;;;;;;;;;;18.95;65.44;98587.47;5091449;28;19923;-46
2022/09/01 04:47:28;;;;;;;;;;;;;;;18.88;65.48;98581.56;5092719;28;19912;-48
2022/09/01 04:49:56;;;;;;;;;;;;;;;18.73;66.32;98589.38;5093071;28;20302;-48
2022/09/01 04:52:22;;;;;;;;;;;;;;;18.68;66.71;98584.06;5092582;28;19912;-48
2022/09/01 04:54:48;;;;;;;;;;;;;;;18.67;66.82;98582.44;5074331;28;19915;-49
2022/09/01 04:57:15;;;;;;;;;;;;;;;18.71;66.60;98587.00;5092561;28;19912;-48
2022/09/01 04:59:42;;;;;;;;;;;;;;;18.83;66.31;98586.81;5092543;28;20549;-49
2022/09/01 05:02:08;;;;;;;;;;;;;;;18.90;65.79;98582.09;5092509;28;19912;-49
2022/09/01 05:04:33;;;;;;;;;;;;;;;18.82;65.49;98581.78;5092457;28;19912;-48
2022/09/01 05:07:00;;;;;;;;;;;;;;;18.76;65.87;98578.25;5091110;28;19927;-49
2022/09/01 05:09:27;;;;;;;;;;;;;;;18.80;65.69;98575.94;5090953;28;19919;-48
2022/09/01 05:11:53;;;;;;;;;;;;;;;18.82;65.90;98576.47;5092377;28;19962;-48
2022/09/01 05:14:19;;;;;;;;;;;;;;;18.92;65.91;98577.31;5090978;28;19916;-49
2022/09/01 05:16:49;;;;;;;;;;;;;;;18.98;65.66;98572.03;5091027;28;19912;-48
2022/09/01 05:19:19;;;;;;;;;;;;;;;19.16;65.63;98582.25;5092405;28;20348;-48
2022/09/01 05:21:46;;;;;;;;;;;;;;;19.21;65.17;98581.44;5092257;28;19916;-48
2022/09/01 05:24:14;;;;;;;;;;;;;;;19.47;64.38;98572.50;5091042;28;19912;-50
2022/09/01 05:26:41;;;;;;;;;;;;;;;19.69;64.08;98580.28;5090935;28;19965;-47
2022/09/01 05:29:09;;;;;;;;;;;;;;;20.24;62.87;98583.34;5092239;28;19912;-47
2022/09/01 05:31:36;;;;;;;;;;;;;;;20.86;60.63;98577.97;5090820;28;19923;-47
2022/09/01 05:34:02;;;;;;;;;;;;;;;21.23;59.24;98572.28;5092153;28;20010;-48
2022/09/01 05:36:32;;;;;;;;;;;;;;;21.66;57.72;98561.97;5092168;28;20378;-47
2022/09/01 05:38:58;;;;;;;;;;;;;;;21.41;57.36;98560.19;5092275;28;19912;-48
2022/09/01 05:41:24;;;;;;;;;;;;;;;20.82;58.73;98564.38;5090751;28;19965;-48
2022/09/01 05:43:51;;;;;;;;;;;;;;;20.60;60.22;98571.91;5092138;28;20405;-47
2022/09/01 05:46:19;;;;;;;;;;;;;;;20.53;60.28;98570.28;5092062;28;19912;-47
2022/09/01 05:48:48;;;;;;;;;;;;;;;20.53;60.44;98575.59;5092293;28;19912;-47
2022/09/01 05:51:16;;;;;;;;;;;;;;;20.64;60.27;98575.63;5092032;28;19912;-47
2022/09/01 05:53:42;;;;;;;;;;;;;;;20.72;59.76;98569.75;5091824;28;20400;-47
2022/09/01 05:56:11;;;;;;;;;;;;;;;21.00;59.76;98567.56;5092171;28;19912;-47
2022/09/01 05:58:39;;;;;;;;;;;;;;;21.50;58.90;98568.47;5091944;28;19958;-48
2022/09/01 06:01:04;;;;;;;;;;;;;;;21.79;57.93;98575.78;5091936;28;19915;-47
2022/09/01 06:03:31;;;;;;;;;;;;;;;21.94;57.17;98578.34;5091970;28;20297;-49
2022/09/01 06:06:01;;;;;;;;;;;;;;;22.27;57.03;98581.34;5091886;28;20385;-49
2022/09/01 06:08:27;;;;;;;;;;;;;;;22.52;56.27;98575.78;5091836;28;19916;-49
2022/09/01 06:10:53;;;;;;;;;;;;;;;23.02;55.32;98580.13;5090668;28;19912;-49
2022/09/01 06:13:20;;;;;;;;;;;;;;;23.52;54.47;98575.25;5091757;28;19923;-47
2022/09/01 06:15:47;;;;;;;;;;;;;;;24.02;51.40;98569.50;5091766;28;19916;-47
2022/09/01 06:18:13;;;;;;;;;;;;;;;24.22;50.69;98579.91;5091793;28;19919;-49
2022/09/01 06:20:44;;;;;;;;;;;;;;;24.63;50.16;98586.50;5093831;28;19920;-48
2022/09/01 06:23:14;;;;;;;;;;;;;;;25.49;49.11;98578.72;5094137;28;20401;-48
2022/09/01 06:25:45;;;;;;;;;;;;;;;26.29;48.45;98576.38;5095606;28;20296;-49
2022/09/01 06:28:14;;;;;;;;;;;;;;;26.95;47.28;98575.00;5095428;28;19915;-49
2022/09/01 06:30:41;;;;;;;;;;;;;;;27.47;46.91;98575.19;5093732;28;19924;-48
2022/09/01 06:33:09;;;;;;;;;;;;;;;27.77;46.43;98578.03;5095551;28;19934;-49
2022/09/01 06:35:39;;;;;;;;;;;;;;;27.73;46.27;98571.69;5095098;28;19919;-49
2022/09/01 06:38:05;;;;;;;;;;;;;;;27.67;46.13;98577.25;5095184;28;20305;-49
2022/09/01 06:40:32;;;;;;;;;;;;;;;27.22;46.87;98582.06;5093812;28;19955;-49
2022/09/01 06:42:59;;;;;;;;;;;;;;;26.89;47.45;98580.53;5095135;28;19912;-47
2022/09/01 06:45:25;;;;;;;;;;;;;;;26.88;47.91;98584.34;5095039;28;19912;-49
2022/09/01 06:47:51;;;;;;;;;;;;;;;27.32;47.28;98589.88;5094924;28;19919;-50
2022/09/01 06:50:18;;;;;;;;;;;;;;;27.80;45.06;98586.31;5094897;28;19912;-49
2022/09/01 06:52:44;;;;;;;;;;;;;;;28.38;44.86;98589.63;5094839;28;20033;-49
2022/09/01 06:55:11;;;;;;;;;;;;;;;28.95;41.80;98585.03;5093460;28;19919;-49
2022/09/01 06:57:38;;;;;;;;;;;;;;;29.66;40.63;98590.56;5094773;28;19912;-49
2022/09/01 07:00:16;;;;;;;;;;;;;;;30.22;39.06;98589.47;5094776;28;19919;-50
2022/09/01 07:02:43;;;;;;;;;;;;;;;30.75;36.80;98579.72;5094763;28;19912;-49
2022/09/01 07:05:08;;;;;;;;;;;;;;;31.35;36.88;98579.28;5093322;28;19912;-48
2022/09/01 07:07:34;;;;;;;;;;;;;;;32.06;36.04;98582.56;5094528;28;19923;-48
2022/09/01 07:10:01;;;;;;;;;;;;;;;33.14;34.34;98576.03;5094528;28;20381;-49
2022/09/01 07:12:27;;;;;;;;;;;;;;;34.14;33.84;98569.19;5093511;28;19963;-48
2022/09/01 07:14:52;;;;;;;;;;;;;;;34.99;33.33;98566.41;5094380;28;20329;-48
2022/09/01 07:17:19;;;;;;;;;;;;;;;35.81;31.77;98568.72;5094410;28;19912;-49
2022/09/01 07:19:45;;;;;;;;;;;;;;;36.32;31.05;98568.13;5094303;28;19912;-49
2022/09/01 07:22:11;;;;;;;;;;;;;;;36.79;29.70;98576.75;5094329;28;19952;-48
2022/09/01 07:24:38;;;;;;;;;;;;;;;36.77;29.94;98573.63;5094505;28;19954;-49
2022/09/01 07:27:04;;;;;;;;;;;;;;;37.42;30.05;98579.53;5094245;28;19916;-49
2022/09/01 07:29:30;;;;;;;;;;;;;;;37.63;29.72;98581.63;5093963;28;19919;-52
2022/09/01 07:31:56;;;;;;;;;;;;;;;38.32;29.12;98581.47;5093130;28;19916;-50
2022/09/01 07:34:21;;;;;;;;;;;;;;;39.08;29.25;98582.31;5093993;28;20428;-49
2022/09/01 07:36:47;;;;;;;;;;;;;;;39.64;27.25;98585.31;5092716;28;19912;-48
2022/09/01 07:39:13;;;;;;;;;;;;;;;40.17;26.54;98582.72;5093970;28;19963;-48
2022/09/01 07:41:40;;;;;;;;;;;;;;;40.75;25.56;98578.44;5093962;28;19912;-48
2022/09/01 07:44:09;;;;;;;;;;;;;;;41.25;25.18;98577.19;5094085;28;19912;-50
2022/09/01 07:46:34;;;;;;;;;;;;;;;41.29;25.02;98577.94;5093820;28;19955;-49
2022/09/01 07:49:00;;;;;;;;;;;;;;;41.30;24.54;98580.28;5092472;28;19954;-52
2022/09/01 07:51:26;;;;;;;;;;;;;;;41.39;23.15;98581.75;5093704;28;19919;-52
2022/09/01 07:53:52;;;;;;;;;;;;;;;41.48;23.49;98584.81;5093658;28;19923;-52
2022/09/01 07:56:19;;;;;;;;;;;;;;;41.67;22.85;98580.66;5093650;28;19923;-51
2022/09/01 07:58:48;;;;;;;;;;;;;;;41.99;22.41;98571.97;5093601;28;20005;-52
2022/09/01 08:01:18;;;;;;;;;;;;;;;41.71;21.81;98573.91;5093514;28;19912;-52
2022/09/01 08:03:44;;;;;;;;;;;;;;;40.82;22.07;98566.59;5092187;28;19916;-51
2022/09/01 08:06:11;;;;;;;;;;;;;;;40.07;22.19;98573.38;5093424;28;19958;-52
2022/09/01 08:08:38;;;;;;;;;;;;;;;39.73;22.14;98571.16;5092122;28;19923;-52
2022/09/01 08:11:04;;;;;;;;;;;;;;;39.30;22.81;98572.06;5093383;28;19916;-53
2022/09/01 08:13:30;;;;;;;;;;;;;;;38.58;22.77;98565.88;5091930;28;20403;-52
2022/09/01 08:15:55;;;;;;;;;;;;;;;38.18;24.18;98573.22;5093291;28;19912;-50
2022/09/01 08:18:21;;;;;;;;;;;;;;;38.95;23.98;98573.66;5093270;28;19912;-49
2022/09/01 08:20:47;;;;;;;;;;;;;;;39.98;23.82;98575.78;5093228;28;19962;-49
2022/09/01 08:23:14;;;;;;;;;;;;;;;41.13;22.97;98575.69;5093129;28;20044;-52
2022/09/01 08:25:41;;;;;;;;;;;;;;;41.50;22.82;98572.19;5091798;28;19962;-52
2022/09/01 08:28:06;;;;;;;;;;;;;;;41.83;22.33;98569.81;5093355;28;19916;-52
2022/09/01 08:30:32;;;;;;;;;;;;;;;42.23;21.39;98578.34;5092767;28;20338;-52
2022/09/01 08:32:59;;;;;;;;;;;;;;;42.51;19.68;98570.88;5093002;28;19912;-52
2022/09/01 08:35:25;;;;;;;;;;;;;;;42.00;20.29;98572.75;5092877;28;19961;-51
2022/09/01 08:37:50;;;;;;;;;;;;;;;42.00;20.32;98576.31;5091554;28;19912;-51
2022/09/01 08:40:18;;;;;;;;;;;;;;;42.01;20.58;98569.56;5091483;28;19919;-52
2022/09/01 08:43:00;;;;;;;;;;;;;;;41.84;20.78;98568.63;5091138;28;19912;-51
2022/09/01 08:45:37;;;;;;;;;;;;;;;42.06;20.53;98576.66;5091503;28;20029;-51
2022/09/01 08:48:24;;;;;;;;;;;;;;;42.46;20.61;98574.88;5092729;28;19912;-52
2022/09/01 08:50:58;;;;;;;;;;;;;;;42.40;21.03;98579.28;5092686;28;19920;-52
2022/09/01 08:53:24;;;;;;;;;;;;;;;42.20;20.66;98576.44;5092587;28;19916;-52
2022/09/01 08:55:54;;;;;;;;;;;;;;;41.86;21.12;98577.28;5091363;28;19922;-53
2022/09/01 08:58:19;;;;;;;;;;;;;;;41.37;21.48;98586.91;5091270;28;19916;-53
2022/09/01 09:00:51;;;;;;;;;;;;;;;41.15;21.51;98575.31;5091531;28;20331;-52
2022/09/01 09:03:30;;;;;;;;;;;;;;;41.05;21.67;98571.47;5092495;28;19916;-53
2022/09/01 09:06:09;;;;;;;;;;;;;;;40.77;21.67;98569.75;5092467;28;19911;-51
2022/09/01 09:08:37;;;;;;;;;;;;;;;40.72;21.95;98577.25;5092811;28;20343;-51
2022/09/01 09:11:06;;;;;;;;;;;;;;;41.25;21.90;98571.69;5092413;28;19998;-52
2022/09/01 09:13:35;;;;;;;;;;;;;;;41.76;21.31;98569.94;5091016;28;19912;-52
2022/09/01 09:16:06;;;;;;;;;;;;;;;42.17;20.61;98565.47;5092376;28;19945;-52
2022/09/01 09:18:36;;;;;;;;;;;;;;;42.50;19.91;98553.53;5092351;28;19920;-53
2022/09/01 09:21:12;;;;;;;;;;;;;;;42.33;20.41;98556.53;5092292;28;20317;-52
2022/09/01 09:23:40;;;;;;;;;;;;;;;42.81;20.00;98563.66;5092543;28;19920;-51
2022/09/01 09:26:05;;;;;;;;;;;;;;;43.45;19.85;98561.72;5092250;28;19920;-53
2022/09/01 09:28:31;;;;;;;;;;;;;;;43.76;18.59;98558.72;5092235;28;19912;-52
2022/09/01 09:31:15;;;;;;;;;;;;;;;44.01;18.16;98560.94;5090616;28;19922;-52
2022/09/01 09:33:40;;;;;;;;;;;;;;;44.01;18.22;98556.19;5092118;28;20011;-52
2022/09/01 09:36:28;;;;;;;;;;;;;;;43.95;18.25;98551.59;5092138;28;19955;-52
2022/09/01 09:39:16;;;;;;;;;;;;;;;44.54;18.34;98560.94;5085278;28;19962;-51
2022/09/01 09:41:42;;;;;;;;;;;;;;;44.62;17.77;98560.31;5090822;28;19912;-52
2022/09/01 09:44:17;;;;;;;;;;;;;;;44.31;17.70;98562.63;5092102;28;19912;-52
2022/09/01 09:46:46;;;;;;;;;;;;;;;44.77;17.25;98543.34;5092143;28;19919;-52
2022/09/01 09:49:11;;;;;;;;;;;;;;;45.17;16.41;98545.84;5092078;28;20275;-53
2022/09/01 09:51:42;;;;;;;;;;;;;;;45.21;16.67;98546.53;5090656;28;19927;-53
2022/09/01 09:54:17;;;;;;;;;;;;;;;44.40;16.81;98542.66;5090605;28;19912;-52
2022/09/01 09:56:45;;;;;;;;;;;;;;;44.07;17.33;98532.38;5096231;28;19916;-52
2022/09/01 09:59:20;;;;;;;;;;;;;;;44.18;17.33;98532.09;5094601;28;20412;-52
2022/09/01 10:01:48;;;;;;;;;;;;;;;43.76;17.80;98528.31;5095900;28;19912;-51
2022/09/01 10:04:30;;;;;;;;;;;;;;;43.99;17.55;98533.72;5095757;28;19950;-53
2022/09/01 10:06:55;;;;;;;;;;;;;;;44.77;17.07;98526.72;5095864;28;19973;-52
2022/09/01 10:09:20;;;;;;;;;;;;;;;45.23;16.39;98527.47;5095730;28;20377;-53
2022/09/01 10:11:51;;;;;;;;;;;;;;;45.57;16.06;98515.03;5095690;28;19952;-52
2022/09/01 10:14:18;;;;;;;;;;;;;;;45.73;15.62;98511.41;5095578;28;19923;-52
2022/09/01 10:16:46;;;;;;;;;;;;;;;45.50;15.75;98504.13;5095673;28;19947;-52
2022/09/01 10:19:13;;;;;;;;;;;;;;;44.78;15.64;98506.13;5095582;28;19912;-52
2022/09/01 10:21:40;;;;;;;;;;;;;;;44.43;16.28;98501.06;5094503;28;19969;-51
2022/09/01 10:24:29;;;;;;;;;;;;;;;44.57;16.04;98504.69;5095451;28;19912;-52
2022/09/01 10:26:58;;;;;;;;;;;;;;;44.70;16.33;98502.78;5089775;28;19919;-53
2022/09/01 10:29:26;;;;;;;;;;;;;;;44.66;16.64;98496.56;5095389;28;20300;-52
2022/09/01 10:31:53;;;;;;;;;;;;;;;44.63;16.40;98494.66;5093785;28;19938;-51
2022/09/01 10:34:20;;;;;;;;;;;;;;;44.74;16.63;98494.38;5095045;28;19928;-53
2022/09/01 10:36:46;;;;;;;;;;;;;;;45.06;16.36;98491.53;5095227;28;19935;-52
2022/09/01 10:39:13;;;;;;;;;;;;;;;44.85;16.12;98492.06;5095152;28;20324;-52
2022/09/01 10:41:42;;;;;;;;;;;;;;;44.74;16.37;98500.69;5095131;28;20407;-52
2022/09/01 10:44:09;;;;;;;;;;;;;;;44.98;16.12;98494.94;5095063;28;19939;-52
2022/09/01 10:46:35;;;;;;;;;;;;;;;44.65;15.98;98494.97;5095068;28;19959;-51
2022/09/01 10:49:03;;;;;;;;;;;;;;;44.35;15.82;98494.13;5093700;28;19951;-52
2022/09/01 10:51:28;;;;;;;;;;;;;;;44.20;16.47;98490.97;5094893;28;20374;-53
2022/09/01 10:53:54;;;;;;;;;;;;;;;43.90;16.56;98489.28;5094838;28;19969;-51
2022/09/01 10:56:26;;;;;;;;;;;;;;;43.38;16.99;98499.06;5094845;28;19969;-52
2022/09/01 10:58:58;;;;;;;;;;;;;;;43.27;16.96;98493.00;5094804;28;19920;-51
2022/09/01 11:01:51;;;;;;;;;;;;;;;43.39;17.11;98483.31;5094721;28;19961;-51
2022/09/01 11:04:40;;;;;;;;;;;;;;;43.14;16.89;98481.78;5092730;28;20018;-49
2022/09/01 11:07:25;;;;;;;;;;;;;;;42.86;17.36;98485.88;5074405;28;19916;-52
2022/09/01 11:10:09;;;;;;;;;;;;;;;43.31;17.06;98485.44;5094525;28;19912;-51
2022/09/01 11:12:42;;;;;;;;;;;;;;;43.04;16.64;98483.56;5094795;28;19916;-52
2022/09/01 11:15:13;;;;;;;;;;;;;;;42.74;17.70;98481.75;5094400;28;19916;-51
2022/09/01 11:17:59;;;;;;;;;;;;;;;42.54;17.40;98475.41;5093139;28;19919;-51
2022/09/01 11:20:29;;;;;;;;;;;;;;;42.20;17.60;98484.63;5092582;28;19912;-53
2022/09/01 11:23:13;;;;;;;;;;;;;;;42.25;18.18;98473.91;5093037;28;19916;-51
2022/09/01 11:25:42;;;;;;;;;;;;;;;42.49;18.08;98465.66;5094262;28;19951;-52
2022/09/01 11:28:07;;;;;;;;;;;;;;;42.84;17.79;98461.47;5094184;28;19912;-52
2022/09/01 11:30:36;;;;;;;;;;;;;;;43.03;17.83;98454.41;5092645;28;19924;-53
2022/09/01 11:33:22;;;;;;;;;;;;;;;43.23;17.45;98451.63;5092808;28;19961;-52
2022/09/01 11:35:57;;;;;;;;;;;;;;;42.65;17.45;98451.16;5094082;28;19912;-52
2022/09/01 11:38:23;;;;;;;;;;;;;;;42.50;17.89;98456.97;5094067;28;19973;-52
2022/09/01 11:40:54;;;;;;;;;;;;;;;42.72;17.90;98451.03;5093940;28;20393;-51
2022/09/01 11:43:24;;;;;;;;;;;;;;;42.47;17.64;98451.50;5093977;28;20173;-53
2022/09/01 11:46:00;;;;;;;;;;;;;;;41.85;17.77;98448.13;5093813;28;19972;-53
2022/09/01 11:48:29;;;;;;;;;;;;;;;41.20;18.58;98456.47;5093864;28;19912;-51
2022/09/01 11:50:58;;;;;;;;;;;;;;;40.84;18.91;98448.63;5093711;28;20002;-51
2022/09/01 11:53:26;;;;;;;;;;;;;;;40.19;19.03;98446.44;5093722;28;19973;-51
2022/09/01 11:55:53;;;;;;;;;;;;;;;39.67;19.63;98443.66;5093597;28;19923;-52
2022/09/01 11:58:27;;;;;;;;;;;;;;;39.85;19.71;98438.03;5093655;28;20001;-52
2022/09/01 12:00:55;;;;;;;;;;;;;;;40.33;19.21;98437.31;5092313;28;20325;-52
2022/09/01 12:03:25;;;;;;;;;;;;;;;40.51;19.39;98439.91;5093585;28;19916;-52
2022/09/01 12:05:58;;;;;;;;;;;;;;;41.17;18.85;98435.25;5093524;28;19950;-52
2022/09/01 12:08:25;;;;;;;;;;;;;;;41.62;18.70;98435.09;5094068;28;19916;-52
2022/09/01 12:11:02;;;;;;;;;;;;;;;41.96;18.01;98431.41;5093372;28;19969;-52
2022/09/01 12:13:28;;;;;;;;;;;;;;;42.15;17.94;98435.47;5093288;28;19954;-51
2022/09/01 12:15:59;;;;;;;;;;;;;;;41.98;17.95;98429.81;5093293;28;19961;-53
2022/09/01 12:18:26;;;;;;;;;;;;;;;42.04;17.31;98436.44;5092621;28;20327;-53
2022/09/01 12:20:54;;;;;;;;;;;;;;;41.77;17.83;98433.66;5092206;28;19957;-52
2022/09/01 12:23:39;;;;;;;;;;;;;;;41.56;18.40;98426.47;5093147;28;20524;-52
2022/09/01 12:26:06;;;;;;;;;;;;;;;41.80;18.07;98426.56;5093165;28;19934;-52
2022/09/01 12:28:32;;;;;;;;;;;;;;;41.80;17.89;98438.34;5093102;28;19912;-52
2022/09/01 12:31:03;;;;;;;;;;;;;;;41.46;17.95;98427.41;5092688;28;19963;-52
2022/09/01 12:33:29;;;;;;;;;;;;;;;41.64;18.53;98427.19;5091624;28;19926;-52
2022/09/01 12:36:15;;;;;;;;;;;;;;;41.83;17.70;98426.47;5091594;28;19916;-51
2022/09/01 12:38:41;;;;;;;;;;;;;;;42.08;17.64;98414.31;5092967;28;19912;-52
2022/09/01 12:41:45;;;;;;;;;;;;;;;42.25;17.46;98415.97;5092818;28;19919;-52
2022/09/01 12:44:28;;;;;;;;;;;;;;;41.92;17.50;98421.22;5050306;28;19944;-51
2022/09/01 12:46:54;;;;;;;;;;;;;;;41.05;17.90;98418.09;5050242;28;19972;-51
2022/09/01 12:49:23;;;;;;;;;;;;;;;40.07;18.77;98416.69;5050181;28;20006;-51
2022/09/01 12:51:49;;;;;;;;;;;;;;;39.86;19.10;98410.16;5050132;28;19923;-51
2022/09/01 12:54:24;;;;;;;;;;;;;;;39.84;19.14;98408.97;5050054;28;19917;-52
2022/09/01 12:56:50;;;;;;;;;;;;;;;39.80;18.94;98406.25;5050133;28;19916;-52
2022/09/01 12:59:22;;;;;;;;;;;;;;;39.97;18.85;98398.31;5050132;28;19916;-51
2022/09/01 13:01:48;;;;;;;;;;;;;;;40.09;18.73;98401.34;5033362;28;19916;-52
2022/09/01 13:04:14;;;;;;;;;;;;;;;40.22;18.67;98404.34;5050052;28;19920;-52